sensor_id;sensor_type;location;lat;lon;timestamp;temperature;humidity
57709;SHT35;42558;52.388;13.390;2023-09-18T00:01:27;18.24;76.03
57709;SHT35;42558;52.388;13.390;2023-09-18T00:03:56;18.27;75.80
57709;SHT35;42558;52.388;13.390;2023-09-18T00:06:24;18.23;75.99
57709;SHT35;42558;52.388;13.390;2023-09-18T00:08:52;18.22;76.04
57709;SHT35;42558;52.388;13.390;2023-09-18T00:11:21;18.20;76.03
57709;SHT35;42558;52.388;13.390;2023-09-18T00:13:49;18.18;76.10
57709;SHT35;42558;52.388;13.390;2023-09-18T00:16:18;18.22;75.85
57709;SHT35;42558;52.388;13.390;2023-09-18T00:18:46;18.19;76.00
57709;SHT35;42558;52.388;13.390;2023-09-18T00:21:15;18.13;76.23
57709;SHT35;42558;52.388;13.390;2023-09-18T00:23:43;18.11;76.29
57709;SHT35;42558;52.388;13.390;2023-09-18T00:26:11;18.09;76.34
57709;SHT35;42558;52.388;13.390;2023-09-18T00:28:40;18.11;76.18
57709;SHT35;42558;52.388;13.390;2023-09-18T00:31:08;18.13;76.12
57709;SHT35;42558;52.388;13.390;2023-09-18T00:33:37;18.06;76.39
57709;SHT35;42558;52.388;13.390;2023-09-18T00:36:05;18.02;76.62
57709;SHT35;42558;52.388;13.390;2023-09-18T00:38:33;17.98;76.80
57709;SHT35;42558;52.388;13.390;2023-09-18T00:41:02;17.98;76.76
57709;SHT35;42558;52.388;13.390;2023-09-18T00:43:30;17.95;76.79
57709;SHT35;42558;52.388;13.390;2023-09-18T00:45:59;17.96;76.75
57709;SHT35;42558;52.388;13.390;2023-09-18T00:48:27;17.94;76.86
57709;SHT35;42558;52.388;13.390;2023-09-18T00:50:55;17.87;77.18
57709;SHT35;42558;52.388;13.390;2023-09-18T00:53:24;17.80;77.56
57709;SHT35;42558;52.388;13.390;2023-09-18T00:55:56;17.77;77.44
57709;SHT35;42558;52.388;13.390;2023-09-18T00:58:27;17.80;77.21
57709;SHT35;42558;52.388;13.390;2023-09-18T01:00:55;17.81;77.12
57709;SHT35;42558;52.388;13.390;2023-09-18T01:03:23;17.80;77.17
57709;SHT35;42558;52.388;13.390;2023-09-18T01:05:53;17.78;77.23
57709;SHT35;42558;52.388;13.390;2023-09-18T01:08:23;17.79;77.24
57709;SHT35;42558;52.388;13.390;2023-09-18T01:11:04;17.72;77.51
57709;SHT35;42558;52.388;13.390;2023-09-18T01:16:48;17.74;77.20
57709;SHT35;42558;52.388;13.390;2023-09-18T01:19:41;17.76;76.84
57709;SHT35;42558;52.388;13.390;2023-09-18T01:22:16;17.73;76.99
57709;SHT35;42558;52.388;13.390;2023-09-18T01:24:48;17.71;77.16
57709;SHT35;42558;52.388;13.390;2023-09-18T01:27:18;17.74;76.92
57709;SHT35;42558;52.388;13.390;2023-09-18T01:29:48;17.70;77.09
57709;SHT35;42558;52.388;13.390;2023-09-18T01:32:18;17.64;77.44
57709;SHT35;42558;52.388;13.390;2023-09-18T01:34:54;17.62;77.54
57709;SHT35;42558;52.388;13.390;2023-09-18T01:37:27;17.62;77.34
57709;SHT35;42558;52.388;13.390;2023-09-18T01:40:00;17.60;77.27
57709;SHT35;42558;52.388;13.390;2023-09-18T01:42:40;17.62;77.24
57709;SHT35;42558;52.388;13.390;2023-09-18T01:45:11;17.58;77.22
57709;SHT35;42558;52.388;13.390;2023-09-18T01:47:41;17.55;77.54
57709;SHT35;42558;52.388;13.390;2023-09-18T01:50:11;17.46;77.75
57709;SHT35;42558;52.388;13.390;2023-09-18T01:52:42;17.44;77.91
57709;SHT35;42558;52.388;13.390;2023-09-18T01:55:11;17.40;78.02
57709;SHT35;42558;52.388;13.390;2023-09-18T01:57:39;17.43;77.75
57709;SHT35;42558;52.388;13.390;2023-09-18T02:00:11;17.48;77.45
57709;SHT35;42558;52.388;13.390;2023-09-18T02:02:43;17.49;77.35
57709;SHT35;42558;52.388;13.390;2023-09-18T02:05:25;17.42;77.87
57709;SHT35;42558;52.388;13.390;2023-09-18T02:07:55;17.35;78.25
57709;SHT35;42558;52.388;13.390;2023-09-18T02:10:26;17.30;78.44
57709;SHT35;42558;52.388;13.390;2023-09-18T02:12:56;17.29;78.46
57709;SHT35;42558;52.388;13.390;2023-09-18T02:15:26;17.25;78.61
57709;SHT35;42558;52.388;13.390;2023-09-18T02:18:01;17.16;79.05
57709;SHT35;42558;52.388;13.390;2023-09-18T02:20:39;17.09;79.24
57709;SHT35;42558;52.388;13.390;2023-09-18T02:23:10;17.10;79.29
57709;SHT35;42558;52.388;13.390;2023-09-18T02:25:40;17.10;79.19
57709;SHT35;42558;52.388;13.390;2023-09-18T02:28:10;17.13;79.10
57709;SHT35;42558;52.388;13.390;2023-09-18T02:30:40;17.14;79.11
57709;SHT35;42558;52.388;13.390;2023-09-18T02:33:10;17.14;78.92
57709;SHT35;42558;52.388;13.390;2023-09-18T02:35:40;17.11;79.06
57709;SHT35;42558;52.388;13.390;2023-09-18T02:38:12;17.14;79.05
57709;SHT35;42558;52.388;13.390;2023-09-18T02:40:42;17.16;78.75
57709;SHT35;42558;52.388;13.390;2023-09-18T02:43:12;17.17;78.83
57709;SHT35;42558;52.388;13.390;2023-09-18T02:45:42;17.12;79.05
57709;SHT35;42558;52.388;13.390;2023-09-18T02:48:12;17.08;79.27
57709;SHT35;42558;52.388;13.390;2023-09-18T02:50:42;17.03;79.33
57709;SHT35;42558;52.388;13.390;2023-09-18T02:53:19;17.02;79.40
57709;SHT35;42558;52.388;13.390;2023-09-18T02:55:52;17.02;79.33
57709;SHT35;42558;52.388;13.390;2023-09-18T02:58:24;17.01;79.33
57709;SHT35;42558;52.388;13.390;2023-09-18T03:00:56;16.97;79.38
57709;SHT35;42558;52.388;13.390;2023-09-18T03:03:33;16.89;79.72
57709;SHT35;42558;52.388;13.390;2023-09-18T03:06:04;16.86;80.02
57709;SHT35;42558;52.388;13.390;2023-09-18T03:08:36;16.88;79.89
57709;SHT35;42558;52.388;13.390;2023-09-18T03:11:12;16.91;79.74
57709;SHT35;42558;52.388;13.390;2023-09-18T03:13:44;16.93;79.70
57709;SHT35;42558;52.388;13.390;2023-09-18T03:16:16;16.92;79.81
57709;SHT35;42558;52.388;13.390;2023-09-18T03:18:46;16.87;79.97
57709;SHT35;42558;52.388;13.390;2023-09-18T03:21:16;16.82;80.07
57709;SHT35;42558;52.388;13.390;2023-09-18T03:23:46;16.82;80.25
57709;SHT35;42558;52.388;13.390;2023-09-18T03:26:16;16.81;80.20
57709;SHT35;42558;52.388;13.390;2023-09-18T03:28:45;16.80;80.32
57709;SHT35;42558;52.388;13.390;2023-09-18T03:31:16;16.78;80.30
57709;SHT35;42558;52.388;13.390;2023-09-18T03:33:46;16.76;80.43
57709;SHT35;42558;52.388;13.390;2023-09-18T03:36:16;16.75;80.56
57709;SHT35;42558;52.388;13.390;2023-09-18T03:38:45;16.73;80.49
57709;SHT35;42558;52.388;13.390;2023-09-18T03:41:15;16.73;80.44
57709;SHT35;42558;52.388;13.390;2023-09-18T03:43:45;16.72;80.33
57709;SHT35;42558;52.388;13.390;2023-09-18T03:46:15;16.76;80.15
57709;SHT35;42558;52.388;13.390;2023-09-18T03:48:45;16.77;79.84
57709;SHT35;42558;52.388;13.390;2023-09-18T03:51:16;16.75;79.89
57709;SHT35;42558;52.388;13.390;2023-09-18T03:53:45;16.73;80.06
57709;SHT35;42558;52.388;13.390;2023-09-18T03:56:17;16.71;79.95
57709;SHT35;42558;52.388;13.390;2023-09-18T03:58:45;16.73;79.88
57709;SHT35;42558;52.388;13.390;2023-09-18T04:01:17;16.77;79.90
57709;SHT35;42558;52.388;13.390;2023-09-18T04:03:45;16.70;80.06
57709;SHT35;42558;52.388;13.390;2023-09-18T04:06:13;16.65;80.30
57709;SHT35;42558;52.388;13.390;2023-09-18T04:08:42;16.62;80.82
57709;SHT35;42558;52.388;13.390;2023-09-18T04:11:10;16.61;80.82
57709;SHT35;42558;52.388;13.390;2023-09-18T04:13:39;16.63;80.88
57709;SHT35;42558;52.388;13.390;2023-09-18T04:16:07;16.67;80.58
57709;SHT35;42558;52.388;13.390;2023-09-18T04:18:35;16.66;80.79
57709;SHT35;42558;52.388;13.390;2023-09-18T04:21:04;16.64;80.95
57709;SHT35;42558;52.388;13.390;2023-09-18T04:23:32;16.66;80.96
57709;SHT35;42558;52.388;13.390;2023-09-18T04:26:01;16.70;80.81
57709;SHT35;42558;52.388;13.390;2023-09-18T04:28:29;16.67;81.03
57709;SHT35;42558;52.388;13.390;2023-09-18T04:30:57;16.69;80.98
57709;SHT35;42558;52.388;13.390;2023-09-18T04:33:26;16.67;81.09
57709;SHT35;42558;52.388;13.390;2023-09-18T04:35:57;16.63;81.25
57709;SHT35;42558;52.388;13.390;2023-09-18T04:38:26;16.60;81.33
57709;SHT35;42558;52.388;13.390;2023-09-18T04:40:58;16.58;81.41
57709;SHT35;42558;52.388;13.390;2023-09-18T04:43:29;16.59;81.43
57709;SHT35;42558;52.388;13.390;2023-09-18T04:45:59;16.61;81.60
57709;SHT35;42558;52.388;13.390;2023-09-18T04:48:28;16.61;81.36
57709;SHT35;42558;52.388;13.390;2023-09-18T04:50:56;16.60;81.45
57709;SHT35;42558;52.388;13.390;2023-09-18T04:53:27;16.61;81.50
57709;SHT35;42558;52.388;13.390;2023-09-18T04:55:56;16.64;81.36
57709;SHT35;42558;52.388;13.390;2023-09-18T04:58:24;16.62;81.41
57709;SHT35;42558;52.388;13.390;2023-09-18T05:00:54;16.60;81.59
57709;SHT35;42558;52.388;13.390;2023-09-18T05:03:28;16.62;81.62
57709;SHT35;42558;52.388;13.390;2023-09-18T05:05:59;16.65;81.63
57709;SHT35;42558;52.388;13.390;2023-09-18T05:08:29;16.66;81.61
57709;SHT35;42558;52.388;13.390;2023-09-18T05:10:59;16.66;81.61
57709;SHT35;42558;52.388;13.390;2023-09-18T05:13:30;16.69;81.59
57709;SHT35;42558;52.388;13.390;2023-09-18T05:16:00;16.72;81.52
57709;SHT35;42558;52.388;13.390;2023-09-18T05:18:30;16.73;81.46
57709;SHT35;42558;52.388;13.390;2023-09-18T05:21:00;16.77;81.32
57709;SHT35;42558;52.388;13.390;2023-09-18T05:23:31;16.81;81.26
57709;SHT35;42558;52.388;13.390;2023-09-18T05:26:01;16.87;81.02
57709;SHT35;42558;52.388;13.390;2023-09-18T05:28:32;16.94;80.84
57709;SHT35;42558;52.388;13.390;2023-09-18T05:31:02;17.01;80.64
57709;SHT35;42558;52.388;13.390;2023-09-18T05:33:33;17.04;80.75
57709;SHT35;42558;52.388;13.390;2023-09-18T05:36:03;17.06;80.66
57709;SHT35;42558;52.388;13.390;2023-09-18T05:38:33;17.14;80.32
57709;SHT35;42558;52.388;13.390;2023-09-18T05:41:03;17.20;80.34
57709;SHT35;42558;52.388;13.390;2023-09-18T05:43:34;17.26;80.17
57709;SHT35;42558;52.388;13.390;2023-09-18T05:46:05;17.35;79.80
57709;SHT35;42558;52.388;13.390;2023-09-18T05:48:35;17.42;79.63
57709;SHT35;42558;52.388;13.390;2023-09-18T05:51:05;17.50;79.47
57709;SHT35;42558;52.388;13.390;2023-09-18T05:53:35;17.59;79.10
57709;SHT35;42558;52.388;13.390;2023-09-18T05:56:05;17.68;78.77
57709;SHT35;42558;52.388;13.390;2023-09-18T05:58:35;17.72;78.79
57709;SHT35;42558;52.388;13.390;2023-09-18T06:01:06;17.72;78.77
57709;SHT35;42558;52.388;13.390;2023-09-18T06:03:37;17.72;78.80
57709;SHT35;42558;52.388;13.390;2023-09-18T06:06:07;17.75;78.71
57709;SHT35;42558;52.388;13.390;2023-09-18T06:08:37;17.83;78.51
57709;SHT35;42558;52.388;13.390;2023-09-18T06:11:07;17.85;78.63
57709;SHT35;42558;52.388;13.390;2023-09-18T06:13:37;17.87;78.57
57709;SHT35;42558;52.388;13.390;2023-09-18T06:16:07;17.95;78.22
57709;SHT35;42558;52.388;13.390;2023-09-18T06:18:38;18.08;78.03
57709;SHT35;42558;52.388;13.390;2023-09-18T06:21:08;18.18;77.57
57709;SHT35;42558;52.388;13.390;2023-09-18T06:23:36;18.37;77.33
57709;SHT35;42558;52.388;13.390;2023-09-18T06:26:05;18.46;76.72
57709;SHT35;42558;52.388;13.390;2023-09-18T06:28:33;18.60;76.51
57709;SHT35;42558;52.388;13.390;2023-09-18T06:31:01;18.76;76.04
57709;SHT35;42558;52.388;13.390;2023-09-18T06:33:30;18.84;75.73
57709;SHT35;42558;52.388;13.390;2023-09-18T06:35:58;18.86;75.51
57709;SHT35;42558;52.388;13.390;2023-09-18T06:38:27;18.90;75.48
57709;SHT35;42558;52.388;13.390;2023-09-18T06:40:55;19.01;75.49
57709;SHT35;42558;52.388;13.390;2023-09-18T06:43:24;19.27;74.70
57709;SHT35;42558;52.388;13.390;2023-09-18T06:45:52;19.46;73.85
57709;SHT35;42558;52.388;13.390;2023-09-18T06:48:20;19.57;73.65
57709;SHT35;42558;52.388;13.390;2023-09-18T06:50:49;19.68;73.44
57709;SHT35;42558;52.388;13.390;2023-09-18T06:53:17;19.74;73.38
57709;SHT35;42558;52.388;13.390;2023-09-18T06:55:46;20.02;72.92
57709;SHT35;42558;52.388;13.390;2023-09-18T06:58:14;20.16;72.14
57709;SHT35;42558;52.388;13.390;2023-09-18T07:00:42;20.32;71.44
57709;SHT35;42558;52.388;13.390;2023-09-18T07:03:11;20.39;70.77
57709;SHT35;42558;52.388;13.390;2023-09-18T07:05:39;20.42;70.91
57709;SHT35;42558;52.388;13.390;2023-09-18T07:08:08;20.49;70.69
57709;SHT35;42558;52.388;13.390;2023-09-18T07:10:39;20.71;70.16
57709;SHT35;42558;52.388;13.390;2023-09-18T07:13:07;20.87;69.88
57709;SHT35;42558;52.388;13.390;2023-09-18T07:15:36;20.89;69.60
57709;SHT35;42558;52.388;13.390;2023-09-18T07:18:04;21.18;69.03
57709;SHT35;42558;52.388;13.390;2023-09-18T07:20:33;21.38;68.08
57709;SHT35;42558;52.388;13.390;2023-09-18T07:23:01;21.49;67.90
57709;SHT35;42558;52.388;13.390;2023-09-18T07:25:29;21.75;67.46
57709;SHT35;42558;52.388;13.390;2023-09-18T07:27:58;22.04;66.77
57709;SHT35;42558;52.388;13.390;2023-09-18T07:30:26;22.11;65.80
57709;SHT35;42558;52.388;13.390;2023-09-18T07:32:55;22.35;65.58
57709;SHT35;42558;52.388;13.390;2023-09-18T07:35:28;22.38;65.18
57709;SHT35;42558;52.388;13.390;2023-09-18T07:37:58;22.57;65.60
57709;SHT35;42558;52.388;13.390;2023-09-18T07:40:28;22.83;63.98
57709;SHT35;42558;52.388;13.390;2023-09-18T07:42:58;22.60;64.73
57709;SHT35;42558;52.388;13.390;2023-09-18T07:45:27;22.86;64.42
57709;SHT35;42558;52.388;13.390;2023-09-18T07:47:57;23.16;63.88
57709;SHT35;42558;52.388;13.390;2023-09-18T07:50:27;23.34;63.04
57709;SHT35;42558;52.388;13.390;2023-09-18T07:52:57;23.45;62.44
57709;SHT35;42558;52.388;13.390;2023-09-18T07:55:27;23.26;62.63
57709;SHT35;42558;52.388;13.390;2023-09-18T07:57:59;23.19;63.00
57709;SHT35;42558;52.388;13.390;2023-09-18T08:00:29;23.67;62.31
57709;SHT35;42558;52.388;13.390;2023-09-18T08:02:59;24.17;60.78
57709;SHT35;42558;52.388;13.390;2023-09-18T08:05:32;24.33;59.94
57709;SHT35;42558;52.388;13.390;2023-09-18T08:08:03;24.01;60.26
57709;SHT35;42558;52.388;13.390;2023-09-18T08:10:36;23.84;61.54
57709;SHT35;42558;52.388;13.390;2023-09-18T08:13:07;24.41;60.28
57709;SHT35;42558;52.388;13.390;2023-09-18T08:15:37;24.28;59.85
57709;SHT35;42558;52.388;13.390;2023-09-18T08:18:08;24.38;60.23
57709;SHT35;42558;52.388;13.390;2023-09-18T08:20:41;24.91;59.18
57709;SHT35;42558;52.388;13.390;2023-09-18T08:23:14;24.97;57.87
57709;SHT35;42558;52.388;13.390;2023-09-18T08:25:44;25.06;57.74
57709;SHT35;42558;52.388;13.390;2023-09-18T08:28:13;25.18;57.13
57709;SHT35;42558;52.388;13.390;2023-09-18T08:30:44;24.95;58.21
57709;SHT35;42558;52.388;13.390;2023-09-18T08:33:16;25.05;58.16
57709;SHT35;42558;52.388;13.390;2023-09-18T08:35:44;25.19;58.76
57709;SHT35;42558;52.388;13.390;2023-09-18T08:38:16;25.22;57.72
57709;SHT35;42558;52.388;13.390;2023-09-18T08:40:46;25.27;57.44
57709;SHT35;42558;52.388;13.390;2023-09-18T08:43:17;25.19;57.21
57709;SHT35;42558;52.388;13.390;2023-09-18T08:45:54;25.06;58.05
57709;SHT35;42558;52.388;13.390;2023-09-18T08:48:31;25.00;57.79
57709;SHT35;42558;52.388;13.390;2023-09-18T08:51:05;25.06;57.47
57709;SHT35;42558;52.388;13.390;2023-09-18T08:53:35;24.90;57.79
57709;SHT35;42558;52.388;13.390;2023-09-18T08:56:05;25.11;58.96
57709;SHT35;42558;52.388;13.390;2023-09-18T08:58:37;25.54;57.33
57709;SHT35;42558;52.388;13.390;2023-09-18T09:01:11;25.90;57.11
57709;SHT35;42558;52.388;13.390;2023-09-18T09:03:41;26.03;55.62
57709;SHT35;42558;52.388;13.390;2023-09-18T09:06:14;25.58;55.87
57709;SHT35;42558;52.388;13.390;2023-09-18T09:08:44;25.35;56.31
57709;SHT35;42558;52.388;13.390;2023-09-18T09:11:14;25.18;56.53
57709;SHT35;42558;52.388;13.390;2023-09-18T09:13:44;25.15;56.92
57709;SHT35;42558;52.388;13.390;2023-09-18T09:16:13;25.27;56.96
57709;SHT35;42558;52.388;13.390;2023-09-18T09:18:49;25.27;56.39
57709;SHT35;42558;52.388;13.390;2023-09-18T09:21:20;25.39;56.99
57709;SHT35;42558;52.388;13.390;2023-09-18T09:23:50;25.68;56.55
57709;SHT35;42558;52.388;13.390;2023-09-18T09:26:21;25.92;55.96
57709;SHT35;42558;52.388;13.390;2023-09-18T09:28:51;25.74;55.66
57709;SHT35;42558;52.388;13.390;2023-09-18T09:31:29;25.61;55.10
57709;SHT35;42558;52.388;13.390;2023-09-18T09:34:00;25.54;55.84
57709;SHT35;42558;52.388;13.390;2023-09-18T09:36:34;25.50;55.85
57709;SHT35;42558;52.388;13.390;2023-09-18T09:39:04;25.60;56.64
57709;SHT35;42558;52.388;13.390;2023-09-18T09:41:33;25.70;56.76
57709;SHT35;42558;52.388;13.390;2023-09-18T09:44:04;25.72;55.72
57709;SHT35;42558;52.388;13.390;2023-09-18T09:46:34;25.81;56.11
57709;SHT35;42558;52.388;13.390;2023-09-18T09:49:04;25.80;55.88
57709;SHT35;42558;52.388;13.390;2023-09-18T09:51:34;25.75;56.57
57709;SHT35;42558;52.388;13.390;2023-09-18T09:54:04;25.74;56.83
57709;SHT35;42558;52.388;13.390;2023-09-18T09:56:41;25.74;56.79
57709;SHT35;42558;52.388;13.390;2023-09-18T09:59:20;25.73;56.05
57709;SHT35;42558;52.388;13.390;2023-09-18T10:01:50;25.64;56.19
57709;SHT35;42558;52.388;13.390;2023-09-18T10:04:19;25.66;58.15
57709;SHT35;42558;52.388;13.390;2023-09-18T10:06:58;25.68;57.82
57709;SHT35;42558;52.388;13.390;2023-09-18T10:09:36;25.70;57.56
57709;SHT35;42558;52.388;13.390;2023-09-18T10:12:10;25.59;58.41
57709;SHT35;42558;52.388;13.390;2023-09-18T10:14:49;25.61;58.04
57709;SHT35;42558;52.388;13.390;2023-09-18T10:17:31;25.69;58.34
57709;SHT35;42558;52.388;13.390;2023-09-18T10:20:08;25.70;57.98
57709;SHT35;42558;52.388;13.390;2023-09-18T10:22:51;25.63;58.08
57709;SHT35;42558;52.388;13.390;2023-09-18T10:25:28;25.60;59.05
57709;SHT35;42558;52.388;13.390;2023-09-18T10:28:01;25.54;58.85
57709;SHT35;42558;52.388;13.390;2023-09-18T10:30:32;25.55;58.62
57709;SHT35;42558;52.388;13.390;2023-09-18T10:33:04;25.42;59.11
57709;SHT35;42558;52.388;13.390;2023-09-18T10:35:37;25.32;59.69
57709;SHT35;42558;52.388;13.390;2023-09-18T10:38:08;25.39;59.60
57709;SHT35;42558;52.388;13.390;2023-09-18T10:40:40;25.50;59.48
57709;SHT35;42558;52.388;13.390;2023-09-18T10:43:11;25.70;58.85
57709;SHT35;42558;52.388;13.390;2023-09-18T10:45:46;25.86;59.42
57709;SHT35;42558;52.388;13.390;2023-09-18T10:48:20;25.78;58.14
57709;SHT35;42558;52.388;13.390;2023-09-18T10:50:53;25.83;59.18
57709;SHT35;42558;52.388;13.390;2023-09-18T10:53:25;25.98;59.12
57709;SHT35;42558;52.388;13.390;2023-09-18T10:55:55;26.16;59.03
57709;SHT35;42558;52.388;13.390;2023-09-18T10:58:26;26.16;58.63
57709;SHT35;42558;52.388;13.390;2023-09-18T11:00:58;25.94;58.76
57709;SHT35;42558;52.388;13.390;2023-09-18T11:03:29;26.06;59.65
57709;SHT35;42558;52.388;13.390;2023-09-18T11:06:21;25.91;59.06
57709;SHT35;42558;52.388;13.390;2023-09-18T11:08:59;25.74;60.03
57709;SHT35;42558;52.388;13.390;2023-09-18T11:11:38;25.59;60.05
57709;SHT35;42558;52.388;13.390;2023-09-18T11:14:10;25.44;59.24
57709;SHT35;42558;52.388;13.390;2023-09-18T11:16:41;25.26;59.40
57709;SHT35;42558;52.388;13.390;2023-09-18T11:19:10;25.17;59.58
57709;SHT35;42558;52.388;13.390;2023-09-18T11:21:46;25.14;59.95
57709;SHT35;42558;52.388;13.390;2023-09-18T11:24:20;25.15;60.13
57709;SHT35;42558;52.388;13.390;2023-09-18T11:26:49;25.10;60.29
57709;SHT35;42558;52.388;13.390;2023-09-18T11:29:22;25.07;60.28
57709;SHT35;42558;52.388;13.390;2023-09-18T11:31:56;25.03;60.44
57709;SHT35;42558;52.388;13.390;2023-09-18T11:34:34;25.03;60.69
57709;SHT35;42558;52.388;13.390;2023-09-18T11:37:20;25.00;60.70
57709;SHT35;42558;52.388;13.390;2023-09-18T11:39:52;25.01;61.59
57709;SHT35;42558;52.388;13.390;2023-09-18T11:42:22;24.90;61.58
57709;SHT35;42558;52.388;13.390;2023-09-18T11:44:53;24.86;61.74
57709;SHT35;42558;52.388;13.390;2023-09-18T11:47:25;24.92;62.50
57709;SHT35;42558;52.388;13.390;2023-09-18T11:49:58;24.92;62.36
57709;SHT35;42558;52.388;13.390;2023-09-18T11:52:28;24.95;62.99
57709;SHT35;42558;52.388;13.390;2023-09-18T11:54:58;24.99;63.32
57709;SHT35;42558;52.388;13.390;2023-09-18T11:57:29;24.96;62.81
57709;SHT35;42558;52.388;13.390;2023-09-18T12:00:05;25.00;61.94
57709;SHT35;42558;52.388;13.390;2023-09-18T12:02:50;25.13;63.01
57709;SHT35;42558;52.388;13.390;2023-09-18T12:05:20;25.27;61.64
57709;SHT35;42558;52.388;13.390;2023-09-18T12:07:54;25.41;60.48
57709;SHT35;42558;52.388;13.390;2023-09-18T12:10:25;25.73;60.42
57709;SHT35;42558;52.388;13.390;2023-09-18T12:12:55;25.97;60.43
57709;SHT35;42558;52.388;13.390;2023-09-18T12:15:25;26.17;60.11
57709;SHT35;42558;52.388;13.390;2023-09-18T12:17:55;26.25;60.29
57709;SHT35;42558;52.388;13.390;2023-09-18T12:20:26;26.26;59.49
57709;SHT35;42558;52.388;13.390;2023-09-18T12:22:55;26.20;59.73
57709;SHT35;42558;52.388;13.390;2023-09-18T12:25:26;26.12;58.85
57709;SHT35;42558;52.388;13.390;2023-09-18T12:27:55;26.04;59.46
57709;SHT35;42558;52.388;13.390;2023-09-18T12:30:24;25.92;59.75
57709;SHT35;42558;52.388;13.390;2023-09-18T12:32:52;25.78;58.62
57709;SHT35;42558;52.388;13.390;2023-09-18T12:35:27;25.65;58.95
57709;SHT35;42558;52.388;13.390;2023-09-18T12:37:59;25.69;58.49
57709;SHT35;42558;52.388;13.390;2023-09-18T12:40:30;25.65;58.72
57709;SHT35;42558;52.388;13.390;2023-09-18T12:43:03;25.70;59.21
57709;SHT35;42558;52.388;13.390;2023-09-18T12:45:34;25.70;58.87
57709;SHT35;42558;52.388;13.390;2023-09-18T12:48:05;25.76;59.98
57709;SHT35;42558;52.388;13.390;2023-09-18T12:50:33;25.80;59.93
57709;SHT35;42558;52.388;13.390;2023-09-18T12:53:12;25.71;58.87
57709;SHT35;42558;52.388;13.390;2023-09-18T12:55:43;25.58;59.55
57709;SHT35;42558;52.388;13.390;2023-09-18T12:58:13;25.52;60.10
57709;SHT35;42558;52.388;13.390;2023-09-18T13:00:49;25.43;60.85
57709;SHT35;42558;52.388;13.390;2023-09-18T13:03:18;25.35;61.70
57709;SHT35;42558;52.388;13.390;2023-09-18T13:05:49;25.14;61.48
57709;SHT35;42558;52.388;13.390;2023-09-18T13:08:23;24.99;61.69
57709;SHT35;42558;52.388;13.390;2023-09-18T13:10:53;24.91;62.08
57709;SHT35;42558;52.388;13.390;2023-09-18T13:13:23;24.83;63.84
57709;SHT35;42558;52.388;13.390;2023-09-18T13:15:56;24.83;63.95
57709;SHT35;42558;52.388;13.390;2023-09-18T13:18:28;24.79;64.71
57709;SHT35;42558;52.388;13.390;2023-09-18T13:20:58;24.59;63.98
57709;SHT35;42558;52.388;13.390;2023-09-18T13:23:29;24.50;64.11
57709;SHT35;42558;52.388;13.390;2023-09-18T13:26:00;24.39;63.62
57709;SHT35;42558;52.388;13.390;2023-09-18T13:28:34;24.29;64.35
57709;SHT35;42558;52.388;13.390;2023-09-18T13:31:05;24.30;65.55
57709;SHT35;42558;52.388;13.390;2023-09-18T13:33:38;24.25;65.82
57709;SHT35;42558;52.388;13.390;2023-09-18T13:36:08;24.20;65.65
57709;SHT35;42558;52.388;13.390;2023-09-18T13:38:37;24.15;66.08
57709;SHT35;42558;52.388;13.390;2023-09-18T13:41:05;24.08;66.35
57709;SHT35;42558;52.388;13.390;2023-09-18T13:43:35;24.06;67.97
57709;SHT35;42558;52.388;13.390;2023-09-18T13:46:03;23.94;69.35
57709;SHT35;42558;52.388;13.390;2023-09-18T13:48:32;24.01;71.22
57709;SHT35;42558;52.388;13.390;2023-09-18T13:51:00;23.94;70.29
57709;SHT35;42558;52.388;13.390;2023-09-18T13:53:32;23.88;70.86
57709;SHT35;42558;52.388;13.390;2023-09-18T13:56:01;23.86;70.13
57709;SHT35;42558;52.388;13.390;2023-09-18T13:58:32;23.85;70.43
57709;SHT35;42558;52.388;13.390;2023-09-18T14:01:03;23.78;70.05
57709;SHT35;42558;52.388;13.390;2023-09-18T14:03:33;23.72;69.93
57709;SHT35;42558;52.388;13.390;2023-09-18T14:06:03;23.70;70.14
57709;SHT35;42558;52.388;13.390;2023-09-18T14:08:34;23.64;69.74
57709;SHT35;42558;52.388;13.390;2023-09-18T14:11:04;23.65;69.45
57709;SHT35;42558;52.388;13.390;2023-09-18T14:13:34;23.67;68.58
57709;SHT35;42558;52.388;13.390;2023-09-18T14:16:05;23.69;68.15
57709;SHT35;42558;52.388;13.390;2023-09-18T14:18:35;23.69;67.06
57709;SHT35;42558;52.388;13.390;2023-09-18T14:21:05;23.69;67.51
57709;SHT35;42558;52.388;13.390;2023-09-18T14:23:35;23.66;67.16
57709;SHT35;42558;52.388;13.390;2023-09-18T14:26:06;23.60;66.46
57709;SHT35;42558;52.388;13.390;2023-09-18T14:28:36;23.59;65.55
57709;SHT35;42558;52.388;13.390;2023-09-18T14:31:06;23.67;66.33
57709;SHT35;42558;52.388;13.390;2023-09-18T14:33:36;23.69;66.31
57709;SHT35;42558;52.388;13.390;2023-09-18T14:36:06;23.72;65.34
57709;SHT35;42558;52.388;13.390;2023-09-18T14:38:36;23.79;65.41
57709;SHT35;42558;52.388;13.390;2023-09-18T14:41:06;23.80;65.55
57709;SHT35;42558;52.388;13.390;2023-09-18T14:43:37;23.73;65.62
57709;SHT35;42558;52.388;13.390;2023-09-18T14:46:07;23.68;64.64
57709;SHT35;42558;52.388;13.390;2023-09-18T14:48:37;23.77;65.26
57709;SHT35;42558;52.388;13.390;2023-09-18T14:51:07;23.81;63.94
57709;SHT35;42558;52.388;13.390;2023-09-18T14:53:37;23.83;63.81
57709;SHT35;42558;52.388;13.390;2023-09-18T14:56:07;23.87;64.01
57709;SHT35;42558;52.388;13.390;2023-09-18T14:58:37;23.88;64.09
57709;SHT35;42558;52.388;13.390;2023-09-18T15:01:07;23.94;64.34
57709;SHT35;42558;52.388;13.390;2023-09-18T15:03:37;23.95;63.15
57709;SHT35;42558;52.388;13.390;2023-09-18T15:06:05;23.98;62.87
57709;SHT35;42558;52.388;13.390;2023-09-18T15:08:34;24.00;63.51
57709;SHT35;42558;52.388;13.390;2023-09-18T15:11:02;24.06;63.73
57709;SHT35;42558;52.388;13.390;2023-09-18T15:13:34;23.99;63.67
57709;SHT35;42558;52.388;13.390;2023-09-18T15:16:02;23.92;63.41
57709;SHT35;42558;52.388;13.390;2023-09-18T15:18:30;23.95;63.54
57709;SHT35;42558;52.388;13.390;2023-09-18T15:20:59;23.94;63.20
57709;SHT35;42558;52.388;13.390;2023-09-18T15:23:27;23.98;63.23
57709;SHT35;42558;52.388;13.390;2023-09-18T15:25:58;23.99;62.99
57709;SHT35;42558;52.388;13.390;2023-09-18T15:28:27;24.03;63.20
57709;SHT35;42558;52.388;13.390;2023-09-18T15:30:55;23.95;63.04
57709;SHT35;42558;52.388;13.390;2023-09-18T15:33:24;23.93;62.97
57709;SHT35;42558;52.388;13.390;2023-09-18T15:35:52;23.98;63.73
57709;SHT35;42558;52.388;13.390;2023-09-18T15:38:20;23.97;63.83
57709;SHT35;42558;52.388;13.390;2023-09-18T15:40:49;23.90;63.50